Time;durP1;ratioP1;P1;durP2;ratioP2;P2;SDS_P1;SDS_P2;PMS_P1;PMS_P2;Temp;Humidity;BMP_temperature;BMP_pressure;BME280_temperature;BME280_humidity;BME280_pressure;Samples;Min_cycle;Max_cycle;Signal;HPM_P1;HPM_P2
2023/01/14 00:00:19;;;;;;;15.95;2.15;;;;;;;;;;5044558;28;20059;-70
2023/01/14 00:02:45;;;;;;;13.95;2.53;;;;;;;;;;5049778;28;20040;-70
2023/01/14 00:05:11;;;;;;;11.80;2.47;;;;;;;;;;5050737;28;20021;-73
2023/01/14 00:07:37;;;;;;;6.47;2.17;;;;;;;;;;5046333;28;20103;-70
2023/01/14 00:10:03;;;;;;;9.75;2.15;;;;;;;;;;5042753;28;20032;-70
2023/01/14 00:12:29;;;;;;;11.35;1.92;;;;;;;;;;5048365;28;20048;-70
2023/01/14 00:14:55;;;;;;;7.90;1.77;;;3.80;99.90;;;;;;5046282;28;20049;-69
2023/01/14 00:17:20;;;;;;;7.65;1.73;;;3.70;99.90;;;;;;5039126;28;20112;-70
2023/01/14 00:19:46;;;;;;;7.72;2.10;;;3.50;99.90;;;;;;5040824;28;20413;-70
2023/01/14 00:22:12;;;;;;;8.80;2.03;;;3.40;99.90;;;;;;5048045;28;20025;-70
2023/01/14 00:24:37;;;;;;;10.43;2.38;;;3.40;99.90;;;;;;5042109;28;20029;-69
2023/01/14 00:27:03;;;;;;;11.85;3.00;;;3.30;99.90;;;;;;5039096;28;20112;-70
2023/01/14 00:29:33;;;;;;;8.00;1.83;;;3.30;99.90;;;;;;5045354;28;20033;-70
2023/01/14 00:32:03;;;;;;;10.20;1.70;;;3.20;99.90;;;;;;5039797;28;20528;-70
2023/01/14 00:34:30;;;;;;;10.35;2.55;;;3.10;99.90;;;;;;5041805;28;20029;-70
2023/01/14 00:36:56;;;;;;;11.93;2.10;;;3.00;99.90;;;;;;5047167;28;20061;-70
2023/01/14 00:39:22;;;;;;;10.40;2.20;;;2.90;99.90;;;;;;5046197;28;20485;-69
2023/01/14 00:41:48;;;;;;;15.95;3.15;;;2.90;99.90;;;;;;5043308;28;20363;-69
2023/01/14 00:44:14;;;;;;;8.20;1.88;;;2.80;99.90;;;;;;5048379;28;20115;-69
2023/01/14 00:46:41;;;;;;;10.20;1.95;;;2.80;99.90;;;;;;5045485;28;20140;-70
2023/01/14 00:49:13;;;;;;;13.27;1.92;;;2.80;99.90;;;;;;5046138;28;20025;-69
2023/01/14 00:51:38;;;;;;;13.38;2.17;;;2.70;99.90;;;;;;5039168;28;20112;-69
2023/01/14 00:54:04;;;;;;;6.32;2.35;;;2.70;99.90;;;;;;5046730;28;20174;-69
2023/01/14 00:56:30;;;;;;;10.70;2.03;;;2.70;99.90;;;;;;5043965;28;20033;-69
2023/01/14 00:58:56;;;;;;;15.13;2.92;;;2.70;99.90;;;;;;5039626;28;20040;-69
2023/01/14 01:01:22;;;;;;;10.85;2.22;;;2.70;99.90;;;;;;5045008;28;20033;-71
2023/01/14 01:03:52;;;;;;;14.35;2.50;;;2.70;99.90;;;;;;5044044;28;20071;-70
2023/01/14 01:06:19;;;;;;;12.73;2.30;;;2.70;99.90;;;;;;5034557;28;20068;-69
2023/01/14 01:08:46;;;;;;;13.10;1.90;;;2.70;99.90;;;;;;5041728;28;20063;-69
2023/01/14 01:11:12;;;;;;;9.27;2.08;;;2.70;99.90;;;;;;5033621;28;20029;-70
2023/01/14 01:13:38;;;;;;;12.43;2.00;;;2.70;99.90;;;;;;5037306;28;20031;-70
2023/01/14 01:16:07;;;;;;;8.80;2.10;;;2.80;99.90;;;;;;5045915;28;20413;-69
2023/01/14 01:18:33;;;;;;;10.32;1.98;;;2.80;99.90;;;;;;5037338;28;20100;-70
2023/01/14 01:21:15;;;;;;;10.35;1.88;;;2.80;99.90;;;;;;5044982;28;20097;-70
2023/01/14 01:23:42;;;;;;;8.38;1.65;;;2.90;99.90;;;;;;5046633;28;20390;-69
2023/01/14 01:26:12;;;;;;;9.90;1.63;;;2.90;99.90;;;;;;5037453;28;20065;-69
2023/01/14 01:28:38;;;;;;;12.57;1.85;;;2.90;99.90;;;;;;5037104;28;20492;-70
2023/01/14 01:31:06;;;;;;;11.20;1.83;;;2.90;99.90;;;;;;5047145;28;20104;-69
2023/01/14 01:33:32;;;;;;;8.95;2.47;;;2.90;99.90;;;;;;5048447;28;20539;-70
2023/01/14 01:36:03;;;;;;;5.85;1.73;;;2.90;99.90;;;;;;5039325;28;20024;-70
2023/01/14 01:38:29;;;;;;;7.53;1.80;;;2.90;99.90;;;;;;5038235;28;20025;-70
2023/01/14 01:40:55;;;;;;;9.85;1.90;;;2.80;99.90;;;;;;5047440;28;20044;-70
2023/01/14 01:43:25;;;;;;;8.13;1.98;;;2.80;99.90;;;;;;5044698;28;20033;-70
2023/01/14 01:45:51;;;;;;;8.60;1.48;;;2.70;99.90;;;;;;5038407;28;20428;-69
2023/01/14 01:48:22;;;;;;;16.60;2.42;;;2.70;99.90;;;;;;5038003;28;20049;-70
2023/01/14 01:51:14;;;;;;;7.28;1.30;;;2.70;99.90;;;;;;5038175;28;20075;-70
2023/01/14 01:53:45;;;;;;;12.43;1.70;;;2.80;99.90;;;;;;5037771;28;20041;-70
2023/01/14 01:56:15;;;;;;;10.23;1.50;;;2.90;99.90;;;;;;5040344;28;20767;-69
2023/01/14 01:58:41;;;;;;;13.48;1.88;;;2.90;99.90;;;;;;5043561;28;20032;-69
2023/01/14 02:01:07;;;;;;;6.95;1.50;;;3.00;99.90;;;;;;5041127;28;20372;-69
2023/01/14 02:03:38;;;;;;;12.38;1.88;;;3.00;99.90;;;;;;5046616;28;20029;-70
2023/01/14 02:06:04;;;;;;;10.98;1.77;;;3.00;99.90;;;;;;5052103;28;20451;-70
2023/01/14 02:08:31;;;;;;;7.63;1.33;;;3.10;99.90;;;;;;5047755;28;20117;-70
2023/01/14 02:11:15;;;;;;;8.43;1.58;;;3.20;99.90;;;;;;5049486;28;20076;-69
2023/01/14 02:14:07;;;;;;;12.88;2.15;;;3.20;99.90;;;;;;5047923;28;20504;-69
2023/01/14 02:17:13;;;;;;;11.45;1.48;;;3.30;99.90;;;;;;5041524;28;20393;-70
2023/01/14 02:19:51;;;;;;;10.48;1.50;;;3.40;99.90;;;;;;5048347;28;20104;-69
2023/01/14 02:22:35;;;;;;;9.50;2.05;;;3.50;99.90;;;;;;5039436;28;20025;-69
2023/01/14 02:25:19;;;;;;;11.10;2.20;;;3.50;99.90;;;;;;5045609;28;20037;-69
2023/01/14 02:28:01;;;;;;;9.27;1.35;;;3.70;99.90;;;;;;5045910;28;20509;-70
2023/01/14 02:31:11;;;;;;;8.57;1.58;;;3.70;99.90;;;;;;5045162;28;20102;-70
2023/01/14 02:33:52;;;;;;;12.57;1.70;;;3.80;99.90;;;;;;4977470;28;20045;-69
2023/01/14 02:36:34;;;;;;;9.68;1.30;;;3.80;99.90;;;;;;4976092;28;20444;-70
2023/01/14 02:39:17;;;;;;;7.53;1.60;;;3.70;99.90;;;;;;5033729;28;20395;-69
2023/01/14 02:44:55;;;;;;;8.25;1.48;;;3.70;99.90;;;;;;5040887;28;20095;-69
2023/01/14 02:47:24;;;;;;;8.10;1.50;;;3.60;99.90;;;;;;5049380;28;20036;-70
2023/01/14 02:49:54;;;;;;;7.75;1.83;;;3.60;99.90;;;;;;5042733;28;20025;-70
2023/01/14 02:52:19;;;;;;;7.18;1.00;;;3.70;99.90;;;;;;5038282;28;20021;-70
2023/01/14 02:54:56;;;;;;;10.32;1.70;;;3.70;99.90;;;;;;5043590;28;20090;-70
2023/01/14 02:57:33;;;;;;;8.55;1.70;;;3.70;99.90;;;;;;5039812;28;20029;-70
2023/01/14 03:00:11;;;;;;;10.20;1.25;;;3.70;99.90;;;;;;5051068;28;20083;-70
2023/01/14 03:03:12;;;;;;;8.30;1.40;;;3.70;99.90;;;;;;5039209;28;20108;-69
2023/01/14 03:06:10;;;;;;;4.88;1.10;;;3.80;99.90;;;;;;5032281;28;20045;-69
2023/01/14 03:08:51;;;;;;;7.82;1.27;;;3.90;99.90;;;;;;5027118;28;20043;-69
2023/01/14 03:11:16;;;;;;;6.07;1.42;;;3.90;99.90;;;;;;5044207;28;20029;-70
2023/01/14 03:14:18;;;;;;;7.70;1.33;;;3.90;99.90;;;;;;5048393;28;20107;-70
2023/01/14 03:16:53;;;;;;;7.50;1.20;;;3.90;99.90;;;;;;5030261;28;20138;-68
2023/01/14 03:19:25;;;;;;;9.00;1.45;;;3.80;99.90;;;;;;5041980;28;20071;-69
2023/01/14 03:21:55;;;;;;;5.57;1.25;;;3.80;99.90;;;;;;5042150;28;20039;-69
2023/01/14 03:24:27;;;;;;;10.95;1.60;;;3.80;99.90;;;;;;5042344;28;20031;-69
2023/01/14 03:26:54;;;;;;;5.50;1.25;;;3.70;99.90;;;;;;5043689;28;20036;-70
2023/01/14 03:29:26;;;;;;;16.30;1.83;;;3.70;99.90;;;;;;5043930;28;20037;-69
2023/01/14 03:32:21;;;;;;;7.22;1.25;;;3.80;99.90;;;;;;5039890;28;20461;-69
2023/01/14 03:34:56;;;;;;;7.32;1.52;;;3.80;99.90;;;;;;5036283;28;20393;-69
2023/01/14 03:37:24;;;;;;;5.85;1.20;;;3.80;99.90;;;;;;5046346;28;20712;-69
2023/01/14 03:39:53;;;;;;;7.70;1.38;;;3.80;99.90;;;;;;5039718;28;20058;-69
2023/01/14 03:42:21;;;;;;;8.15;1.10;;;3.80;99.90;;;;;;5044833;28;20040;-69
2023/01/14 03:44:59;;;;;;;14.75;1.85;;;3.80;99.90;;;;;;5043457;28;20071;-70
2023/01/14 03:47:28;;;;;;;4.97;1.13;;;3.80;99.90;;;;;;5050954;28;20148;-69
2023/01/14 03:49:54;;;;;;;5.00;1.05;;;3.80;99.90;;;;;;5048548;28;20041;-70
2023/01/14 03:52:38;;;;;;;9.80;1.17;;;3.80;99.90;;;;;;5034578;28;20031;-69
2023/01/14 03:55:15;;;;;;;10.05;1.17;;;3.80;99.90;;;;;;5044190;28;20108;-69
2023/01/14 03:58:01;;;;;;;7.65;1.20;;;3.90;99.90;;;;;;5050739;28;20025;-69
2023/01/14 04:00:38;;;;;;;7.22;1.98;;;4.00;99.90;;;;;;5039221;28;20029;-69
2023/01/14 04:03:06;;;;;;;8.95;1.05;;;4.00;99.90;;;;;;5040251;28;20041;-69
2023/01/14 04:05:32;;;;;;;8.70;1.00;;;4.10;99.90;;;;;;5045515;28;20033;-69
2023/01/14 04:07:59;;;;;;;8.15;0.98;;;4.10;99.90;;;;;;5043055;28;20036;-69
2023/01/14 04:10:25;;;;;;;3.60;1.10;;;4.10;99.90;;;;;;5036511;28;20613;-69
2023/01/14 04:15:35;;;;;;;10.32;1.80;;;4.20;99.90;;;;;;5047762;28;20055;-69
2023/01/14 04:18:02;;;;;;;8.30;1.90;;;4.30;99.90;;;;;;5042550;28;20025;-69
2023/01/14 04:20:27;;;;;;;10.57;2.97;;;4.30;99.90;;;;;;5041515;28;20477;-69
2023/01/14 04:22:53;;;;;;;11.02;2.20;;;4.30;99.90;;;;;;5043978;28;20104;-69
2023/01/14 04:25:18;;;;;;;6.20;1.63;;;4.30;99.90;;;;;;5047440;28;20442;-70
2023/01/14 04:27:44;;;;;;;8.05;1.65;;;4.30;99.90;;;;;;5044869;28;20025;-70
2023/01/14 04:30:10;;;;;;;5.57;1.27;;;4.20;99.90;;;;;;5040372;28;20036;-70
2023/01/14 04:32:36;;;;;;;6.07;1.38;;;4.20;99.90;;;;;;5044343;28;20478;-70
2023/01/14 04:35:02;;;;;;;8.63;1.60;;;4.10;99.90;;;;;;5042813;28;20033;-70
2023/01/14 04:37:28;;;;;;;6.15;1.30;;;4.10;99.90;;;;;;5042897;28;20112;-70
2023/01/14 04:39:54;;;;;;;7.60;1.10;;;4.10;99.90;;;;;;5044165;28;20108;-70
2023/01/14 04:42:28;;;;;;;10.63;1.08;;;4.20;99.90;;;;;;5049315;28;20474;-70
2023/01/14 04:45:00;;;;;;;5.38;0.93;;;4.20;99.90;;;;;;5039969;28;20044;-70
2023/01/14 04:47:27;;;;;;;8.00;1.10;;;4.30;99.90;;;;;;5047159;28;20040;-70
2023/01/14 04:49:53;;;;;;;6.57;1.13;;;4.30;99.90;;;;;;5042390;28;20064;-70
2023/01/14 04:52:19;;;;;;;6.20;0.98;;;4.30;99.90;;;;;;5048490;28;20041;-68
2023/01/14 04:54:44;;;;;;;7.97;1.10;;;4.40;99.90;;;;;;5046816;28;20040;-69
2023/01/14 04:57:11;;;;;;;5.20;1.02;;;4.50;99.90;;;;;;5045788;28;20049;-69
2023/01/14 04:59:37;;;;;;;10.05;1.67;;;4.50;99.90;;;;;;5041030;28;20121;-69
2023/01/14 05:02:02;;;;;;;4.50;1.05;;;4.50;99.90;;;;;;5042943;28;20102;-70
2023/01/14 05:04:30;;;;;;;7.15;1.00;;;4.50;99.90;;;;;;5045446;28;20021;-69
2023/01/14 05:06:56;;;;;;;6.90;1.40;;;4.60;99.90;;;;;;5048910;28;21669;-69
2023/01/14 05:09:22;;;;;;;7.18;1.20;;;4.60;99.90;;;;;;5043433;28;20029;-69
2023/01/14 05:11:47;;;;;;;5.32;0.90;;;4.60;99.90;;;;;;5038898;28;20340;-70
2023/01/14 05:14:13;;;;;;;3.78;1.20;;;4.50;99.90;;;;;;5040086;28;20037;-69
2023/01/14 05:16:38;;;;;;;5.07;0.70;;;4.50;99.90;;;;;;5043612;28;20055;-70
2023/01/14 05:19:04;;;;;;;10.63;1.48;;;4.50;99.90;;;;;;5038136;28;20139;-69
2023/01/14 05:21:30;;;;;;;7.35;0.93;;;4.40;99.90;;;;;;5042214;28;20027;-69
2023/01/14 05:23:55;;;;;;;3.85;1.13;;;4.40;99.90;;;;;;5049002;28;20398;-70
2023/01/14 05:26:21;;;;;;;7.35;1.30;;;4.30;99.90;;;;;;5041445;28;20040;-69
2023/01/14 05:28:46;;;;;;;7.68;1.10;;;4.30;99.90;;;;;;5041883;28;20039;-69
2023/01/14 05:31:12;;;;;;;11.65;1.70;;;4.40;99.90;;;;;;5040143;28;20037;-69
2023/01/14 05:33:38;;;;;;;8.88;1.02;;;4.40;99.90;;;;;;5046614;28;20037;-69
2023/01/14 05:36:04;;;;;;;8.15;1.48;;;4.40;99.90;;;;;;5043433;28;20037;-69
2023/01/14 05:38:29;;;;;;;5.65;0.93;;;4.40;99.90;;;;;;5042557;28;20064;-69
2023/01/14 05:40:55;;;;;;;4.07;1.00;;;4.40;99.90;;;;;;5045143;28;20116;-69
2023/01/14 05:46:12;;;;;;;6.15;1.05;;;4.30;99.90;;;;;;5045093;28;20547;-70
2023/01/14 05:48:38;;;;;;;9.45;1.10;;;4.40;99.90;;;;;;5045160;28;20057;-70
2023/01/14 05:51:04;;;;;;;3.88;1.10;;;4.40;99.90;;;;;;5049624;28;20465;-69
2023/01/14 05:53:32;;;;;;;8.55;1.30;;;4.40;99.90;;;;;;5042694;28;20041;-70
2023/01/14 05:55:59;;;;;;;8.02;0.95;;;4.50;99.90;;;;;;5045341;28;20033;-69
2023/01/14 05:58:26;;;;;;;7.60;1.10;;;4.40;99.90;;;;;;5043851;28;20110;-70
2023/01/14 06:06:28;;;;;;;6.05;1.05;;;4.40;99.90;;;;;;5044106;28;20068;-69
2023/01/14 06:09:04;;;;;;;8.90;1.45;;;4.30;99.90;;;;;;5041076;28;20136;-69
2023/01/14 06:11:33;;;;;;;7.53;1.33;;;4.30;99.90;;;;;;5044404;28;20442;-69
2023/01/14 06:14:00;;;;;;;8.17;1.27;;;4.30;99.90;;;;;;5042532;28;20025;-69
2023/01/14 06:16:28;;;;;;;7.72;1.33;;;4.30;99.90;;;;;;5043776;28;20393;-69
2023/01/14 06:18:54;;;;;;;7.22;1.23;;;4.30;99.90;;;;;;5051107;28;20072;-69
2023/01/14 06:21:23;;;;;;;8.15;1.20;;;4.30;99.90;;;;;;5044411;28;20042;-69
2023/01/14 06:23:48;;;;;;;5.70;1.17;;;4.30;99.90;;;;;;5042155;28;20025;-69
2023/01/14 06:26:17;;;;;;;13.07;1.20;;;4.40;99.90;;;;;;5051035;28;20504;-68
2023/01/14 06:28:43;;;;;;;9.45;1.50;;;4.40;99.90;;;;;;5050941;28;20155;-68
2023/01/14 06:31:16;;;;;;;8.15;0.80;;;4.40;99.90;;;;;;5046283;28;20108;-69
2023/01/14 06:33:43;;;;;;;6.00;1.27;;;4.40;99.90;;;;;;5047469;28;20029;-69
2023/01/14 06:36:10;;;;;;;5.53;1.30;;;4.40;99.90;;;;;;5047032;28;20025;-70
2023/01/14 06:38:36;;;;;;;7.63;1.20;;;4.40;99.90;;;;;;5051175;28;20482;-70
2023/01/14 06:41:03;;;;;;;3.72;0.73;;;4.40;99.90;;;;;;5046718;28;20035;-70
2023/01/14 06:43:29;;;;;;;4.22;0.85;;;4.40;99.90;;;;;;5050745;28;20050;-69
2023/01/14 06:45:56;;;;;;;6.95;1.42;;;4.40;99.90;;;;;;5051672;28;20095;-69
2023/01/14 06:48:22;;;;;;;8.88;1.10;;;4.30;99.90;;;;;;5041020;28;20824;-69
2023/01/14 06:50:47;;;;;;;7.18;1.10;;;4.30;99.90;;;;;;5041169;28;20032;-69
2023/01/14 06:53:13;;;;;;;9.85;1.55;;;4.30;99.90;;;;;;5045418;28;20033;-69
2023/01/14 06:55:39;;;;;;;10.57;1.90;;;4.30;99.90;;;;;;5044613;28;20037;-69
2023/01/14 06:58:04;;;;;;;6.45;1.30;;;4.30;99.90;;;;;;5042345;28;20038;-69
2023/01/14 07:00:30;;;;;;;11.50;1.67;;;4.40;99.90;;;;;;5044434;28;20025;-69
2023/01/14 07:02:55;;;;;;;6.10;1.23;;;4.40;99.90;;;;;;5044136;28;20055;-69
2023/01/14 07:05:21;;;;;;;5.40;1.48;;;4.50;99.90;;;;;;5043860;28;20045;-69
2023/01/14 07:07:48;;;;;;;11.55;2.05;;;4.40;99.90;;;;;;5043829;28;20124;-70
2023/01/14 07:10:14;;;;;;;11.98;1.38;;;4.50;99.90;;;;;;5042418;28;20086;-69
2023/01/14 07:12:45;;;;;;;7.05;2.20;;;4.50;99.90;;;;;;5044150;28;20071;-69
2023/01/14 07:15:11;;;;;;;8.23;1.25;;;4.60;99.90;;;;;;5041069;28;20482;-73
2023/01/14 07:17:37;;;;;;;7.03;1.70;;;4.60;99.90;;;;;;5046599;28;20039;-69
2023/01/14 07:20:04;;;;;;;6.70;1.30;;;4.60;99.90;;;;;;5042739;28;20033;-70
2023/01/14 07:22:30;;;;;;;7.20;1.40;;;4.60;99.90;;;;;;5047409;28;20853;-70
2023/01/14 07:24:55;;;;;;;3.58;1.15;;;4.60;99.90;;;;;;5050925;28;20021;-71
2023/01/14 07:27:21;;;;;;;9.98;1.77;;;4.70;99.90;;;;;;5042970;28;20342;-70
2023/01/14 07:29:47;;;;;;;10.45;1.75;;;4.70;99.90;;;;;;5042288;28;20048;-68
2023/01/14 07:32:12;;;;;;;14.07;2.00;;;4.70;99.90;;;;;;5039904;28;20032;-69
2023/01/14 07:34:38;;;;;;;11.20;2.05;;;4.80;99.90;;;;;;5041442;28;20034;-69
2023/01/14 07:37:03;;;;;;;10.93;1.55;;;4.80;99.90;;;;;;5037377;28;20037;-70
2023/01/14 07:39:29;;;;;;;11.75;1.90;;;4.80;99.90;;;;;;5043861;28;20029;-69
2023/01/14 07:41:55;;;;;;;8.30;1.50;;;4.80;99.90;;;;;;5037929;28;20032;-69
2023/01/14 07:44:23;;;;;;;10.70;1.67;;;4.90;99.90;;;;;;5043163;28;20076;-69
2023/01/14 07:46:53;;;;;;;8.32;1.80;;;4.90;99.90;;;;;;5040098;28;20036;-69
2023/01/14 07:49:19;;;;;;;9.80;1.65;;;5.00;99.90;;;;;;5042484;28;20116;-68
2023/01/14 07:51:45;;;;;;;8.98;2.20;;;5.00;99.90;;;;;;5040768;28;20033;-68
2023/01/14 07:54:10;;;;;;;14.95;1.80;;;5.00;99.90;;;;;;5039972;28;20035;-69
2023/01/14 07:56:36;;;;;;;9.30;1.90;;;5.00;99.90;;;;;;5038736;28;20029;-69
2023/01/14 07:59:01;;;;;;;11.88;2.30;;;5.00;99.90;;;;;;5043367;28;20043;-69
2023/01/14 08:01:27;;;;;;;10.82;2.00;;;5.10;99.90;;;;;;5044073;28;20071;-70
2023/01/14 08:03:53;;;;;;;12.35;1.90;;;5.20;99.90;;;;;;5042973;28;20051;-68
2023/01/14 08:06:19;;;;;;;16.70;2.58;;;5.20;99.90;;;;;;5047948;28;20033;-68
2023/01/14 08:08:44;;;;;;;11.63;2.08;;;5.30;99.90;;;;;;5037564;28;20033;-69
2023/01/14 08:11:10;;;;;;;10.07;1.83;;;5.30;99.90;;;;;;5043581;28;20025;-68
2023/01/14 08:13:35;;;;;;;11.25;1.98;;;5.40;99.90;;;;;;5039040;28;20025;-68
2023/01/14 08:16:02;;;;;;;10.23;2.03;;;5.50;99.90;;;;;;5039902;28;20498;-68
2023/01/14 08:18:30;;;;;;;8.95;2.03;;;5.50;99.90;;;;;;5037574;28;20044;-68
2023/01/14 08:20:57;;;;;;;9.75;1.70;;;5.60;99.90;;;;;;5045343;28;20030;-69
2023/01/14 08:23:22;;;;;;;10.63;2.25;;;5.70;99.90;;;;;;5038235;28;20621;-69
2023/01/14 08:25:48;;;;;;;12.68;1.77;;;5.80;99.90;;;;;;5039270;28;20036;-69
2023/01/14 08:28:13;;;;;;;9.35;1.77;;;5.90;99.90;;;;;;5041509;28;20454;-70
2023/01/14 08:30:39;;;;;;;13.23;2.17;;;6.00;99.90;;;;;;5043125;28;20061;-69
2023/01/14 08:33:04;;;;;;;9.20;1.98;;;6.00;99.90;;;;;;5039459;28;20454;-69
2023/01/14 08:35:30;;;;;;;11.52;1.88;;;6.00;99.90;;;;;;5040267;28;20033;-69
2023/01/14 08:37:56;;;;;;;10.35;1.75;;;6.10;99.90;;;;;;5038974;28;20060;-68
2023/01/14 08:40:23;;;;;;;8.20;1.58;;;6.20;99.90;;;;;;5037286;28;20512;-69
2023/01/14 08:42:48;;;;;;;8.43;1.80;;;6.20;99.90;;;;;;5044583;28;20053;-68
2023/01/14 08:45:14;;;;;;;12.30;2.22;;;6.30;99.90;;;;;;5036092;28;20493;-70
2023/01/14 08:47:40;;;;;;;14.23;3.33;;;6.40;99.90;;;;;;5038403;28;20029;-69
2023/01/14 08:50:06;;;;;;;8.70;2.05;;;6.50;99.90;;;;;;5038527;28;20033;-70
2023/01/14 08:52:31;;;;;;;11.02;2.08;;;6.60;99.90;;;;;;5038034;28;20061;-69
2023/01/14 08:54:57;;;;;;;9.38;1.70;;;6.70;99.90;;;;;;5042113;28;20044;-69
2023/01/14 08:57:23;;;;;;;8.55;1.83;;;6.80;99.90;;;;;;5039404;28;20206;-69
2023/01/14 08:59:48;;;;;;;10.32;1.63;;;6.80;99.90;;;;;;5039498;28;20040;-69
2023/01/14 09:02:15;;;;;;;13.32;1.73;;;6.90;99.90;;;;;;5037968;28;20108;-69
2023/01/14 09:04:40;;;;;;;9.55;1.35;;;6.90;99.90;;;;;;5036870;28;20176;-68
2023/01/14 09:18:03;;;;;;;10.02;1.48;;;7.10;99.90;;;;;;5019178;28;20048;-66
2023/01/14 09:20:33;;;;;;;6.85;1.48;;;7.20;99.90;;;;;;5019090;28;20453;-67
2023/01/14 09:22:59;;;;;;;7.47;1.45;;;7.20;99.90;;;;;;5018132;28;20017;-69
2023/01/14 09:25:25;;;;;;;6.20;1.20;;;7.20;99.90;;;;;;5019396;28;20034;-69
2023/01/14 09:27:50;;;;;;;5.75;1.30;;;7.20;99.90;;;;;;5018851;28;20083;-67
2023/01/14 09:30:16;;;;;;;5.35;1.55;;;7.20;99.90;;;;;;5021592;28;20103;-68
2023/01/14 09:32:42;;;;;;;11.45;1.65;;;7.20;99.90;;;;;;5022404;28;20037;-71
2023/01/14 09:35:08;;;;;;;5.32;1.20;;;7.20;99.90;;;;;;5022190;28;20052;-70
2023/01/14 09:37:34;;;;;;;8.82;1.45;;;7.20;99.90;;;;;;5027294;28;20450;-70
2023/01/14 09:40:00;;;;;;;5.40;1.52;;;7.30;99.90;;;;;;5003973;28;20038;-75
2023/01/14 09:42:28;;;;;;;5.38;1.20;;;7.40;99.90;;;;;;5023400;28;20101;-71
2023/01/14 09:45:02;;;;;;;6.95;1.67;;;7.40;99.90;;;;;;5021029;28;20036;-70
2023/01/14 09:47:28;;;;;;;6.43;1.50;;;7.50;99.90;;;;;;5020741;28;20087;-71
2023/01/14 09:49:54;;;;;;;9.00;1.98;;;7.50;99.90;;;;;;5020927;28;20029;-72
2023/01/14 09:52:45;;;;;;;8.38;1.20;;;7.60;99.90;;;;;;5018435;28;20497;-70
2023/01/14 09:55:29;;;;;;;8.35;1.40;;;7.70;99.90;;;;;;5018275;28;20037;-71
2023/01/14 09:58:00;;;;;;;6.93;1.48;;;7.80;99.90;;;;;;5017609;28;20030;-72
2023/01/14 10:00:31;;;;;;;8.27;1.40;;;7.90;99.90;;;;;;5017399;28;20180;-71
2023/01/14 10:03:21;;;;;;;6.32;1.52;;;7.90;99.90;;;;;;5017047;28;20025;-72
2023/01/14 10:06:02;;;;;;;5.65;1.60;;;8.00;99.90;;;;;;5015331;28;20061;-70
2023/01/14 10:08:33;;;;;;;9.45;1.45;;;8.10;99.90;;;;;;5016622;28;20040;-68
2023/01/14 10:11:01;;;;;;;4.18;1.55;;;8.20;99.90;;;;;;5019421;28;20414;-68
2023/01/14 10:13:34;;;;;;;3.83;0.98;;;8.30;99.90;;;;;;5018141;28;20022;-67
2023/01/14 10:16:04;;;;;;;5.35;1.85;;;8.50;99.90;;;;;;5035555;28;20128;-70
2023/01/14 10:18:45;;;;;;;6.32;2.17;;;8.50;99.90;;;;;;5039542;28;20037;-69
2023/01/14 10:21:29;;;;;;;8.10;2.33;;;8.60;99.90;;;;;;5041749;28;20047;-71
2023/01/14 10:23:55;;;;;;;5.72;1.58;;;8.60;99.90;;;;;;5036582;28;20116;-68
2023/01/14 10:26:22;;;;;;;5.88;1.70;;;8.60;99.90;;;;;;5049684;28;20484;-69
2023/01/14 10:28:50;;;;;;;7.35;1.75;;;8.70;99.90;;;;;;5040697;28;20038;-72
2023/01/14 10:31:22;;;;;;;5.50;1.60;;;8.80;99.90;;;;;;5042235;28;20040;-72
2023/01/14 10:33:48;;;;;;;7.25;1.50;;;8.80;99.90;;;;;;5049468;28;20025;-73
2023/01/14 10:36:18;;;;;;;5.03;1.35;;;8.80;99.90;;;;;;5050741;28;20075;-72
2023/01/14 10:38:45;;;;;;;7.13;2.00;;;8.90;99.90;;;;;;5051136;28;20047;-73
2023/01/14 10:41:12;;;;;;;4.47;1.10;;;8.90;99.90;;;;;;5041660;28;20116;-73
2023/01/14 10:43:42;;;;;;;6.50;1.35;;;8.90;99.90;;;;;;5041473;28;20033;-73
2023/01/14 10:46:15;;;;;;;7.03;1.23;;;9.00;99.90;;;;;;5050903;28;20131;-71
2023/01/14 10:48:50;;;;;;;4.30;1.80;;;9.00;99.90;;;;;;5048322;28;20061;-70
2023/01/14 10:51:35;;;;;;;6.55;1.35;;;9.00;99.90;;;;;;5047300;28;20036;-74
2023/01/14 10:54:10;;;;;;;5.82;1.98;;;9.00;99.90;;;;;;5045331;28;20071;-71
2023/01/14 10:56:37;;;;;;;3.92;1.60;;;8.90;99.90;;;;;;5047249;28;20036;-75
2023/01/14 10:59:03;;;;;;;7.72;1.77;;;9.00;99.90;;;;;;5043705;28;20079;-72
2023/01/14 11:01:39;;;;;;;5.15;1.70;;;9.00;99.90;;;;;;5039537;28;20360;-74
2023/01/14 11:04:04;;;;;;;5.53;1.88;;;9.00;99.90;;;;;;5048536;28;20051;-73
2023/01/14 11:06:30;;;;;;;5.68;1.80;;;9.00;99.90;;;;;;5037385;28;20040;-70
2023/01/14 11:08:56;;;;;;;5.57;1.60;;;9.00;99.90;;;;;;5043081;28;20029;-72
2023/01/14 11:11:24;;;;;;;4.72;1.40;;;9.00;99.90;;;;;;5042934;28;20025;-71
2023/01/14 11:13:53;;;;;;;6.05;1.90;;;9.00;99.90;;;;;;5050276;28;20025;-70
2023/01/14 11:16:28;;;;;;;3.65;1.00;;;9.10;99.90;;;;;;5046399;28;20102;-72
2023/01/14 11:19:00;;;;;;;6.18;1.58;;;9.10;99.90;;;;;;5047929;28;20458;-72
2023/01/14 11:21:40;;;;;;;5.53;2.00;;;9.10;99.90;;;;;;5054732;28;20247;-72
2023/01/14 11:24:20;;;;;;;2.22;1.15;;;9.10;99.90;;;;;;5045826;28;20505;-73
2023/01/14 11:26:46;;;;;;;5.72;1.70;;;9.10;99.90;;;;;;5041418;28;20342;-71
2023/01/14 11:29:26;;;;;;;4.50;1.50;;;9.10;99.90;;;;;;5044088;28;20036;-71
2023/01/14 11:32:08;;;;;;;3.67;1.10;;;9.10;99.90;;;;;;5050714;28;20108;-69
2023/01/14 11:34:35;;;;;;;3.70;1.23;;;9.10;99.90;;;;;;5044073;28;20033;-70
2023/01/14 11:37:10;;;;;;;1.80;0.85;;;9.20;99.90;;;;;;5046334;28;20040;-72
2023/01/14 11:39:38;;;;;;;1.92;0.90;;;9.20;99.90;;;;;;5047721;28;20032;-71
2023/01/14 11:42:21;;;;;;;3.95;1.17;;;9.20;99.90;;;;;;5047004;28;20385;-71
2023/01/14 11:45:01;;;;;;;4.20;0.90;;;9.30;99.90;;;;;;5047167;28;20029;-71
2023/01/14 11:47:29;;;;;;;;;;;9.40;99.90;;;;;;5042598;28;20130;-76
2023/01/14 11:50:30;;;;;;;2.20;0.73;;;9.50;99.90;;;;;;5050355;28;19923;-71
2023/01/14 11:53:08;;;;;;;4.45;1.20;;;9.50;99.90;;;;;;5023340;28;20041;-72
2023/01/14 11:55:39;;;;;;;3.13;1.13;;;9.60;99.90;;;;;;5041348;28;20029;-73
2023/01/14 11:58:10;;;;;;;4.57;1.10;;;9.60;99.90;;;;;;5040547;28;20056;-73
2023/01/14 12:00:38;;;;;;;2.35;1.30;;;9.70;99.90;;;;;;5044406;28;20032;-73
2023/01/14 12:03:14;;;;;;;3.72;0.98;;;9.70;99.90;;;;;;5043004;28;20059;-75
2023/01/14 12:05:41;;;;;;;4.07;1.10;;;9.80;99.90;;;;;;5041107;28;20385;-74
2023/01/14 12:08:14;;;;;;;3.95;1.27;;;9.80;99.90;;;;;;5047217;28;20052;-75
2023/01/14 12:10:44;;;;;;;3.17;1.20;;;9.80;99.90;;;;;;5042704;28;20469;-72
2023/01/14 12:19:14;;;;;;;2.75;1.05;;;9.90;99.90;;;;;;5038949;28;20051;-73
2023/01/14 12:21:47;;;;;;;2.53;0.85;;;9.80;99.90;;;;;;5041565;28;20547;-74
2023/01/14 12:24:29;;;;;;;4.20;1.23;;;9.80;99.90;;;;;;5038507;28;20025;-74
2023/01/14 12:26:56;;;;;;;1.65;0.77;;;9.80;99.90;;;;;;5042065;28;20044;-73
2023/01/14 12:29:39;;;;;;;2.00;0.90;;;9.70;99.90;;;;;;5040542;28;20112;-77
2023/01/14 12:32:15;;;;;;;2.85;0.95;;;9.70;99.90;;;;;;5037308;28;20486;-76
2023/01/14 12:34:49;;;;;;;1.95;0.73;;;9.70;99.90;;;;;;5042389;28;20108;-77
2023/01/14 12:37:32;;;;;;;2.40;0.90;;;9.70;99.90;;;;;;5039470;28;20061;-71
2023/01/14 12:45:50;;;;;;;3.22;0.95;;;9.50;99.90;;;;;;5049654;28;20090;-71
2023/01/14 12:48:21;;;;;;;3.15;0.93;;;9.50;99.90;;;;;;5039990;28;20085;-72
2023/01/14 12:50:55;;;;;;;4.18;0.90;;;9.50;99.90;;;;;;5044858;28;20056;-72
2023/01/14 12:53:49;;;;;;;2.13;1.00;;;9.50;99.90;;;;;;5041144;28;20052;-70
2023/01/14 12:56:40;;;;;;;4.63;0.80;;;9.50;99.90;;;;;;5038790;28;20048;-70
2023/01/14 12:59:17;;;;;;;2.85;0.93;;;9.50;99.90;;;;;;5038186;28;20041;-71
2023/01/14 13:02:12;;;;;;;1.83;0.80;;;9.50;99.90;;;;;;5047992;28;20493;-71
2023/01/14 13:04:49;;;;;;;3.50;1.00;;;9.50;99.90;;;;;;5043906;28;20112;-73
2023/01/14 13:07:27;;;;;;;3.95;1.08;;;9.40;99.90;;;;;;5040733;28;20040;-73
2023/01/14 13:09:55;;;;;;;4.05;1.38;;;9.40;99.90;;;;;;5051622;28;20035;-72
2023/01/14 13:12:27;;;;;;;2.47;0.93;;;9.50;99.90;;;;;;5041087;28;20032;-69
2023/01/14 13:14:56;;;;;;;3.13;0.98;;;9.50;99.90;;;;;;5040608;28;20485;-68
2023/01/14 13:17:36;;;;;;;3.38;1.02;;;9.50;99.90;;;;;;5047192;28;20056;-70
2023/01/14 13:20:37;;;;;;;3.53;1.23;;;9.60;99.90;;;;;;5046708;28;20029;-70
2023/01/14 13:23:10;;;;;;;2.47;0.70;;;9.60;99.90;;;;;;5046771;28;20052;-71
2023/01/14 13:25:45;;;;;;;2.83;1.00;;;9.60;99.90;;;;;;5032064;28;20361;-71
2023/01/14 13:28:15;;;;;;;2.05;1.13;;;9.70;99.90;;;;;;5036015;28;20117;-71
2023/01/14 13:30:53;;;;;;;4.23;1.43;;;9.70;99.90;;;;;;5040393;28;20032;-72
2023/01/14 13:33:26;;;;;;;2.00;1.02;;;9.70;99.90;;;;;;5037234;28;20040;-71
2023/01/14 13:36:10;;;;;;;2.17;1.08;;;9.70;99.90;;;;;;5041998;28;20067;-75
2023/01/14 13:38:57;;;;;;;4.22;1.10;;;9.70;99.90;;;;;;5047316;28;20035;-68
2023/01/14 13:41:57;;;;;;;4.03;1.20;;;9.70;99.90;;;;;;5044766;28;20092;-68
2023/01/14 13:44:30;;;;;;;4.68;1.38;;;9.70;99.90;;;;;;5011319;28;20048;-66
2023/01/14 13:47:16;;;;;;;2.33;1.27;;;9.70;99.90;;;;;;5043904;28;20425;-67
2023/01/14 13:49:45;;;;;;;3.42;1.35;;;9.60;99.90;;;;;;5040355;28;20057;-67